Time,TemperatureF,DewpointF,PressureIn,WindDirection,WindDirectionDegrees,WindSpeedMPH,WindSpeedGustMPH,Humidity,HourlyPrecipIn,Conditions,Clouds,dailyrainin,SolarRadiationWatts/m^2,SoftwareType,DateUTC
2013-04-03 00:00:00,48.1,30.8,30.14,NNE,17,0.0,0.0,51,0.00,,,0.00,0.00,VWS V14.01,2013-04-03 04:00:00,
2013-04-03 00:05:00,48.1,29.9,30.14,NNE,17,0.0,0.0,49,0.00,,,0.00,0.00,VWS V14.01,2013-04-03 04:05:00,
2013-04-03 00:10:00,47.9,27.6,30.14,NNE,17,0.0,0.0,45,0.00,,,0.00,0.00,VWS V14.01,2013-04-03 04:10:00,
2013-04-03 00:15:00,47.8,27.5,30.15,NNE,17,0.0,0.0,45,0.00,,,0.00,0.00,VWS V14.01,2013-04-03 04:15:00,
2013-04-03 00:20:00,47.8,27.5,30.14,NNE,17,0.0,0.0,45,0.00,,,0.00,0.00,VWS V14.01,2013-04-03 04:20:00,
2013-04-03 00:25:00,47.7,29.0,30.14,NNE,17,0.0,0.0,48,0.00,,,0.00,0.00,VWS V14.01,2013-04-03 04:25:00,
2013-04-03 00:30:00,47.5,27.8,30.14,NNE,17,0.0,0.0,46,0.00,,,0.00,0.00,VWS V14.01,2013-04-03 04:30:00,
2013-04-03 00:35:00,47.4,27.1,30.15,NNE,17,0.0,0.0,45,0.00,,,0.00,0.00,VWS V14.01,2013-04-03 04:35:00,
2013-04-03 00:40:00,47.2,28.0,30.15,NNE,17,0.0,0.0,47,0.00,,,0.00,0.00,VWS V14.01,2013-04-03 04:40:00,
2013-04-03 00:45:00,46.9,27.7,30.15,NNE,17,0.0,0.0,47,0.00,,,0.00,0.00,VWS V14.01,2013-04-03 04:45:00,
2013-04-03 00:50:00,46.7,26.0,30.15,NNE,17,0.0,1.0,44,0.00,,,0.00,0.00,VWS V14.01,2013-04-03 04:50:00,
2013-04-03 00:55:00,46.4,25.7,30.15,NNE,17,0.0,0.0,44,0.00,,,0.00,0.00,VWS V14.01,2013-04-03 04:55:00,
2013-04-03 01:00:00,46.3,25.0,30.15,NNE,17,0.0,0.0,43,0.00,,,0.00,0.00,VWS V14.01,2013-04-03 05:00:00,
2013-04-03 01:05:00,46.1,26.0,30.16,NNE,17,0.0,0.0,45,0.00,,,0.00,0.00,VWS V14.01,2013-04-03 05:05:00,
2013-04-03 01:10:00,46.0,26.9,30.16,NNE,17,0.0,0.0,47,0.00,,,0.00,0.00,VWS V14.01,2013-04-03 05:10:00,
2013-04-03 01:15:00,45.8,26.7,30.16,NNE,17,0.0,0.0,47,0.00,,,0.00,0.00,VWS V14.01,2013-04-03 05:15:00,
2013-04-03 01:20:00,45.6,27.1,30.16,NNE,17,0.0,0.0,48,0.00,,,0.00,0.00,VWS V14.01,2013-04-03 05:20:00,
2013-04-03 01:25:00,45.4,27.4,30.17,NNE,17,0.0,1.0,49,0.00,,,0.00,0.00,VWS V14.01,2013-04-03 05:25:00,
2013-04-03 01:30:00,45.0,28.5,30.17,NNE,17,0.0,0.0,52,0.00,,,0.00,0.00,VWS V14.01,2013-04-03 05:30:00,
2013-04-03 01:35:00,44.8,28.7,30.17,NNE,17,0.0,0.0,53,0.00,,,0.00,0.00,VWS V14.01,2013-04-03 05:35:00,
2013-04-03 01:40:00,44.6,28.1,30.17,NNE,17,0.0,0.0,52,0.00,,,0.00,0.00,VWS V14.01,2013-04-03 05:40:00,
2013-04-03 01:45:00,44.4,29.3,30.17,NNE,17,0.0,0.0,55,0.00,,,0.00,0.00,VWS V14.01,2013-04-03 05:45:00,
2013-04-03 01:50:00,44.2,30.0,30.18,NNE,17,0.0,0.0,57,0.00,,,0.00,0.00,VWS V14.01,2013-04-03 05:50:00,
2013-04-03 01:55:00,44.1,29.4,30.18,NNE,17,0.0,0.0,56,0.00,,,0.00,0.00,VWS V14.01,2013-04-03 05:55:00,
2013-04-03 02:00:00,43.9,28.8,30.18,NNE,17,0.0,0.0,55,0.00,,,0.00,0.00,VWS V14.01,2013-04-03 06:00:00,
2013-04-03 02:05:00,43.7,28.6,30.19,NNE,17,0.0,0.0,55,0.00,,,0.00,0.00,VWS V14.01,2013-04-03 06:05:00,
2013-04-03 02:10:00,43.5,28.9,30.19,NNE,17,0.0,0.0,56,0.00,,,0.00,0.00,VWS V14.01,2013-04-03 06:10:00,
2013-04-03 02:15:00,43.1,28.5,30.19,NNE,17,0.0,0.0,56,0.00,,,0.00,0.00,VWS V14.01,2013-04-03 06:15:00,
2013-04-03 02:20:00,42.8,26.4,30.19,NNE,17,0.0,0.0,52,0.00,,,0.00,0.00,VWS V14.01,2013-04-03 06:20:00,
2013-04-03 02:25:00,42.5,27.0,30.19,NNE,17,0.0,0.0,54,0.00,,,0.00,0.00,VWS V14.01,2013-04-03 06:25:00,
2013-04-03 02:30:00,42.2,26.8,30.19,NNE,17,0.0,0.0,54,0.00,,,0.00,0.00,VWS V14.01,2013-04-03 06:30:00,
2013-04-03 02:35:00,41.8,25.9,30.20,NNE,17,0.0,0.0,53,0.00,,,0.00,0.00,VWS V14.01,2013-04-03 06:35:00,
2013-04-03 02:40:00,41.6,25.8,30.20,NNE,17,0.0,0.0,53,0.00,,,0.00,0.00,VWS V14.01,2013-04-03 06:40:00,
2013-04-03 02:45:00,41.3,25.5,30.20,NNE,17,0.0,0.0,53,0.00,,,0.00,0.00,VWS V14.01,2013-04-03 06:45:00,
2013-04-03 02:50:00,41.1,26.6,30.20,NNE,17,0.0,0.0,56,0.00,,,0.00,0.00,VWS V14.01,2013-04-03 06:50:00,
2013-04-03 02:55:00,40.9,26.9,30.20,NNE,17,0.0,0.0,57,0.00,,,0.00,0.00,VWS V14.01,2013-04-03 06:55:00,
2013-04-03 03:00:00,40.6,29.0,30.19,NNE,17,0.0,0.0,63,0.00,,,0.00,0.00,VWS V14.01,2013-04-03 07:00:00,
2013-04-03 03:05:00,40.3,28.7,30.19,NNE,17,0.0,0.0,63,0.00,,,0.00,0.00,VWS V14.01,2013-04-03 07:05:00,
2013-04-03 03:10:00,40.0,28.0,30.19,NNE,17,0.0,0.0,62,0.00,,,0.00,0.00,VWS V14.01,2013-04-03 07:10:00,
2013-04-03 03:15:00,39.7,27.8,30.19,NNE,17,0.0,0.0,62,0.00,,,0.00,0.00,VWS V14.01,2013-04-03 07:15:00,
2013-04-03 03:20:00,39.5,28.4,30.19,NNE,17,0.0,0.0,64,0.00,,,0.00,0.00,VWS V14.01,2013-04-03 07:20:00,
2013-04-03 03:25:00,39.3,28.5,30.19,NNE,17,0.0,0.0,65,0.00,,,0.00,0.00,VWS V14.01,2013-04-03 07:25:00,
2013-04-03 03:30:00,39.0,28.2,30.19,NNE,17,0.0,0.0,65,0.00,,,0.00,0.00,VWS V14.01,2013-04-03 07:30:00,
2013-04-03 03:35:00,38.8,28.4,30.19,NNE,17,0.0,0.0,66,0.00,,,0.00,0.00,VWS V14.01,2013-04-03 07:35:00,
2013-04-03 03:40:00,38.5,28.5,30.19,NNE,17,0.0,0.0,67,0.00,,,0.00,0.00,VWS V14.01,2013-04-03 07:40:00,
2013-04-03 03:45:00,38.3,29.0,30.19,NNE,17,0.0,0.0,69,0.00,,,0.00,0.00,VWS V14.01,2013-04-03 07:45:00,
2013-04-03 03:50:00,38.0,29.1,30.19,NNE,17,0.0,0.0,70,0.00,,,0.00,0.00,VWS V14.01,2013-04-03 07:50:00,
2013-04-03 03:55:00,37.8,28.9,30.19,NNE,17,0.0,0.0,70,0.00,,,0.00,0.00,VWS V14.01,2013-04-03 07:55:00,
2013-04-03 04:00:00,37.5,29.0,30.19,NNE,17,0.0,0.0,71,0.00,,,0.00,0.00,VWS V14.01,2013-04-03 08:00:00,
2013-04-03 04:05:00,37.3,29.1,30.20,NNE,17,0.0,0.0,72,0.00,,,0.00,0.00,VWS V14.01,2013-04-03 08:05:00,
2013-04-03 04:10:00,37.0,29.2,30.20,NNE,17,0.0,0.0,73,0.00,,,0.00,0.00,VWS V14.01,2013-04-03 08:10:00,
2013-04-03 04:15:00,36.8,29.3,30.19,NNE,17,0.0,0.0,74,0.00,,,0.00,0.00,VWS V14.01,2013-04-03 08:15:00,
2013-04-03 04:20:00,36.6,29.1,30.20,NNE,17,0.0,0.0,74,0.00,,,0.00,0.00,VWS V14.01,2013-04-03 08:20:00,
2013-04-03 04:25:00,36.4,28.9,30.20,NNE,17,0.0,0.0,74,0.00,,,0.00,0.00,VWS V14.01,2013-04-03 08:25:00,
2013-04-03 04:30:00,36.2,29.0,30.20,NNE,17,0.0,0.0,75,0.00,,,0.00,0.00,VWS V14.01,2013-04-03 08:30:00,
2013-04-03 04:35:00,36.0,29.2,30.20,NNE,17,0.0,0.0,76,0.00,,,0.00,0.00,VWS V14.01,2013-04-03 08:35:00,
2013-04-03 04:40:00,35.8,28.7,30.21,NNE,17,0.0,0.0,75,0.00,,,0.00,0.00,VWS V14.01,2013-04-03 08:40:00,
2013-04-03 04:45:00,35.6,28.8,30.21,NNE,17,0.0,0.0,76,0.00,,,0.00,0.00,VWS V14.01,2013-04-03 08:45:00,
2013-04-03 04:50:00,35.4,28.6,30.21,NNE,17,0.0,0.0,76,0.00,,,0.00,0.00,VWS V14.01,2013-04-03 08:50:00,
2013-04-03 04:55:00,35.2,28.7,30.21,NNE,17,0.0,0.0,77,0.00,,,0.00,0.00,VWS V14.01,2013-04-03 08:55:00,
2013-04-03 05:00:00,35.0,28.5,30.21,NNE,17,0.0,0.0,77,0.00,,,0.00,0.00,VWS V14.01,2013-04-03 09:00:00,
2013-04-03 05:05:00,34.8,28.6,30.21,NNE,17,0.0,0.0,78,0.00,,,0.00,0.00,VWS V14.01,2013-04-03 09:05:00,
2013-04-03 05:10:00,34.6,28.8,30.21,NNE,17,0.0,0.0,79,0.00,,,0.00,0.00,VWS V14.01,2013-04-03 09:10:00,
2013-04-03 05:15:00,34.4,28.6,30.21,NNE,17,0.0,0.0,79,0.00,,,0.00,0.00,VWS V14.01,2013-04-03 09:15:00,
2013-04-03 05:20:00,34.3,28.8,30.22,NNE,17,0.0,0.0,80,0.00,,,0.00,0.00,VWS V14.01,2013-04-03 09:20:00,
2013-04-03 05:25:00,34.1,28.6,30.22,NNE,17,0.0,0.0,80,0.00,,,0.00,0.00,VWS V14.01,2013-04-03 09:25:00,
2013-04-03 05:30:00,34.0,28.5,30.22,NNE,17,0.0,0.0,80,0.00,,,0.00,0.00,VWS V14.01,2013-04-03 09:30:00,
2013-04-03 05:35:00,33.9,28.7,30.22,NNE,17,0.0,0.0,81,0.00,,,0.00,0.00,VWS V14.01,2013-04-03 09:35:00,
2013-04-03 05:40:00,33.8,28.3,30.22,NNE,17,0.0,0.0,80,0.00,,,0.00,0.00,VWS V14.01,2013-04-03 09:40:00,
2013-04-03 05:45:00,33.6,28.1,30.22,NNE,17,0.0,0.0,80,0.00,,,0.00,0.00,VWS V14.01,2013-04-03 09:45:00,
2013-04-03 05:50:00,33.5,28.3,30.22,NNE,17,0.0,0.0,81,0.00,,,0.00,0.00,VWS V14.01,2013-04-03 09:50:00,
2013-04-03 05:55:00,33.4,28.2,30.22,NNE,17,0.0,0.0,81,0.00,,,0.00,0.00,VWS V14.01,2013-04-03 09:55:00,
2013-04-03 06:00:00,33.2,28.0,30.22,NNE,17,0.0,0.0,81,0.00,,,0.00,0.00,VWS V14.01,2013-04-03 10:00:00,
2013-04-03 06:05:00,33.1,28.2,30.21,NNE,17,0.0,0.0,82,0.00,,,0.00,0.00,VWS V14.01,2013-04-03 10:05:00,
2013-04-03 06:10:00,33.0,28.4,30.21,NNE,17,0.0,0.0,83,0.00,,,0.00,0.00,VWS V14.01,2013-04-03 10:10:00,
2013-04-03 06:15:00,32.9,28.6,30.21,NNE,17,0.0,0.0,84,0.00,,,0.00,0.00,VWS V14.01,2013-04-03 10:15:00,
2013-04-03 06:20:00,32.8,28.5,30.21,NNE,17,0.0,0.0,84,0.00,,,0.00,0.00,VWS V14.01,2013-04-03 10:20:00,
2013-04-03 06:25:00,32.7,28.1,30.22,NNE,17,0.0,0.0,83,0.00,,,0.00,0.00,VWS V14.01,2013-04-03 10:25:00,
2013-04-03 06:30:00,32.6,28.0,30.22,NNE,17,0.0,0.0,83,0.00,,,0.00,0.00,VWS V14.01,2013-04-03 10:30:00,
2013-04-03 06:35:00,32.5,27.9,30.22,NNE,17,0.0,0.0,83,0.00,,,0.00,0.00,VWS V14.01,2013-04-03 10:35:00,
2013-04-03 06:40:00,32.3,28.0,30.22,NNE,17,0.0,0.0,84,0.00,,,0.00,0.00,VWS V14.01,2013-04-03 10:40:00,
2013-04-03 06:45:00,32.2,27.9,30.22,NNE,17,0.0,0.0,84,0.00,,,0.00,0.00,VWS V14.01,2013-04-03 10:45:00,
2013-04-03 06:50:00,32.1,27.5,30.23,NNE,18,0.0,0.0,83,0.00,,,0.00,0.00,VWS V14.01,2013-04-03 10:50:00,
2013-04-03 06:55:00,32.0,27.4,30.23,NNE,17,0.0,0.0,83,0.00,,,0.00,0.00,VWS V14.01,2013-04-03 10:55:00,
2013-04-03 07:00:00,31.8,27.2,30.23,NNE,17,0.0,0.0,83,0.00,,,0.00,0.00,VWS V14.01,2013-04-03 11:00:00,
2013-04-03 07:05:00,31.7,27.1,30.24,NNE,18,0.0,0.0,83,0.00,,,0.00,0.00,VWS V14.01,2013-04-03 11:05:00,
2013-04-03 07:10:00,31.6,27.3,30.25,NNE,17,0.0,0.0,84,0.00,,,0.00,5.00,VWS V14.01,2013-04-03 11:10:00,
2013-04-03 07:15:00,31.5,27.2,30.25,NNE,17,0.0,0.0,84,0.00,,,0.00,7.00,VWS V14.01,2013-04-03 11:15:00,
2013-04-03 07:20:00,31.4,27.1,30.25,NNE,18,0.0,0.0,84,0.00,,,0.00,11.00,VWS V14.01,2013-04-03 11:20:00,
2013-04-03 07:25:00,31.3,26.8,30.26,NNE,17,0.0,1.0,83,0.00,,,0.00,12.00,VWS V14.01,2013-04-03 11:25:00,
2013-04-03 07:30:00,31.2,26.6,30.29,NNE,17,0.0,0.0,83,0.00,,,0.00,16.00,VWS V14.01,2013-04-03 11:30:00,
2013-04-03 07:35:00,31.2,26.6,30.28,NNE,17,0.0,0.0,83,0.00,,,0.00,18.00,VWS V14.01,2013-04-03 11:35:00,
2013-04-03 07:40:00,31.2,26.4,30.26,NNE,17,0.0,0.0,82,0.00,,,0.00,21.00,VWS V14.01,2013-04-03 11:40:00,
2013-04-03 07:45:00,31.2,26.4,30.26,NNE,18,0.0,0.0,82,0.00,,,0.00,21.00,VWS V14.01,2013-04-03 11:45:00,
2013-04-03 07:50:00,31.2,26.4,30.26,NNE,17,0.0,0.0,82,0.00,,,0.00,23.00,VWS V14.01,2013-04-03 11:50:00,
2013-04-03 07:55:00,31.3,26.8,30.27,NNE,17,0.0,0.0,83,0.00,,,0.00,40.00,VWS V14.01,2013-04-03 11:55:00,
2013-04-03 08:00:00,31.6,27.6,30.26,NNE,18,0.0,0.0,85,0.00,,,0.00,109.00,VWS V14.01,2013-04-03 12:00:00,
2013-04-03 08:05:00,31.9,28.5,30.27,NNE,17,0.0,0.0,87,0.00,,,0.00,69.00,VWS V14.01,2013-04-03 12:05:00,
2013-04-03 08:10:00,32.3,29.1,30.27,NNE,17,0.0,0.0,88,0.00,,,0.00,144.00,VWS V14.01,2013-04-03 12:10:00,
2013-04-03 08:15:00,32.5,29.4,30.28,NNE,17,0.0,0.0,88,0.00,,,0.00,171.00,VWS V14.01,2013-04-03 12:15:00,
2013-04-03 08:20:00,33.3,30.4,30.28,NNE,17,0.0,0.0,89,0.00,,,0.00,188.00,VWS V14.01,2013-04-03 12:20:00,
2013-04-03 08:25:00,34.2,31.3,30.28,NNE,17,0.0,0.0,89,0.00,,,0.00,137.00,VWS V14.01,2013-04-03 12:25:00,
2013-04-03 08:30:00,35.2,32.0,30.29,NNE,17,1.0,1.0,88,0.00,,,0.00,172.00,VWS V14.01,2013-04-03 12:30:00,
2013-04-03 08:35:00,36.2,32.4,30.28,NNE,17,0.0,0.0,86,0.00,,,0.00,127.00,VWS V14.01,2013-04-03 12:35:00,
2013-04-03 08:40:00,37.0,32.3,30.29,NNE,17,0.0,1.0,83,0.00,,,0.00,192.00,VWS V14.01,2013-04-03 12:40:00,
2013-04-03 08:45:00,37.7,30.5,30.29,NNE,18,2.0,2.0,75,0.00,,,0.00,227.00,VWS V14.01,2013-04-03 12:45:00,
2013-04-03 08:50:00,38.2,27.9,30.29,NNE,17,0.0,1.0,66,0.00,,,0.00,229.00,VWS V14.01,2013-04-03 12:50:00,
2013-04-03 08:55:00,39.0,26.3,30.29,NE,46,4.0,4.0,60,0.00,,,0.00,299.00,VWS V14.01,2013-04-03 12:55:00,
2013-04-03 09:00:00,40.5,21.9,30.30,NE,43,3.0,7.0,47,0.00,,,0.00,322.00,VWS V14.01,2013-04-03 13:00:00,
2013-04-03 09:05:00,41.4,22.7,30.30,NE,43,0.0,0.0,47,0.00,,,0.00,315.00,VWS V14.01,2013-04-03 13:05:00,
2013-04-03 09:10:00,42.1,22.3,30.30,NE,44,0.0,2.0,45,0.00,,,0.00,359.00,VWS V14.01,2013-04-03 13:10:00,
2013-04-03 09:15:00,42.9,21.4,30.30,NE,44,0.0,3.0,42,0.00,,,0.00,357.00,VWS V14.01,2013-04-03 13:15:00,
2013-04-03 09:20:00,43.5,20.2,30.30,NE,49,3.0,3.0,39,0.00,,,0.00,185.00,VWS V14.01,2013-04-03 13:20:00,
2013-04-03 09:25:00,44.0,20.6,30.30,ESE,105,2.0,2.0,39,0.00,,,0.00,237.00,VWS V14.01,2013-04-03 13:25:00,
2013-04-03 09:30:00,44.3,20.3,30.30,NE,51,2.0,2.0,38,0.00,,,0.00,297.00,VWS V14.01,2013-04-03 13:30:00,
2013-04-03 09:35:00,44.5,20.5,30.31,NE,52,2.0,4.0,38,0.00,,,0.00,67.00,VWS V14.01,2013-04-03 13:35:00,
2013-04-03 09:40:00,44.7,20.7,30.31,South,180,0.0,0.0,38,0.00,,,0.00,65.00,VWS V14.01,2013-04-03 13:40:00,
2013-04-03 09:45:00,44.9,20.9,30.30,East,98,1.0,3.0,38,0.00,,,0.00,186.00,VWS V14.01,2013-04-03 13:45:00,
2013-04-03 09:50:00,45.0,20.3,30.30,East,98,1.0,7.0,37,0.00,,,0.00,105.00,VWS V14.01,2013-04-03 13:50:00,
2013-04-03 09:55:00,45.4,21.9,30.30,SE,141,1.0,1.0,39,0.00,,,0.00,243.00,VWS V14.01,2013-04-03 13:55:00,
2013-04-03 10:00:00,45.6,20.9,30.30,ENE,61,2.0,2.0,37,0.00,,,0.00,225.00,VWS V14.01,2013-04-03 14:00:00,
2013-04-03 10:05:00,46.0,19.9,30.30,North,5,0.0,4.0,35,0.00,,,0.00,388.00,VWS V14.01,2013-04-03 14:05:00,
2013-04-03 10:10:00,46.2,21.4,30.30,NNW,346,4.0,4.0,37,0.00,,,0.00,118.00,VWS V14.01,2013-04-03 14:10:00,
2013-04-03 10:15:00,46.3,19.5,30.30,NNE,32,7.0,8.0,34,0.00,,,0.00,436.00,VWS V14.01,2013-04-03 14:15:00,
2013-04-03 10:20:00,46.4,19.6,30.30,North,360,0.0,4.0,34,0.00,,,0.00,380.00,VWS V14.01,2013-04-03 14:20:00,
2013-04-03 10:25:00,46.8,21.9,30.30,NE,36,4.0,4.0,37,0.00,,,0.00,417.00,VWS V14.01,2013-04-03 14:25:00,
2013-04-03 10:30:00,46.9,20.0,30.30,NNE,26,0.0,2.0,34,0.00,,,0.00,355.00,VWS V14.01,2013-04-03 14:30:00,
2013-04-03 10:35:00,47.3,21.0,30.30,NE,50,0.0,1.0,35,0.00,,,0.00,540.00,VWS V14.01,2013-04-03 14:35:00,
2013-04-03 10:40:00,47.6,19.2,30.30,NE,42,1.0,3.0,32,0.00,,,0.00,545.00,VWS V14.01,2013-04-03 14:40:00,
2013-04-03 10:45:00,47.7,18.6,30.30,NE,36,5.0,5.0,31,0.00,,,0.00,582.00,VWS V14.01,2013-04-03 14:45:00,
2013-04-03 10:50:00,47.8,20.1,30.29,East,87,0.0,2.0,33,0.00,,,0.00,378.00,VWS V14.01,2013-04-03 14:50:00,
2013-04-03 10:55:00,48.2,19.7,30.29,NNE,17,4.0,4.0,32,0.00,,,0.00,613.00,VWS V14.01,2013-04-03 14:55:00,
2013-04-03 11:00:00,48.6,20.1,30.29,NNW,329,4.0,5.0,32,0.00,,,0.00,733.00,VWS V14.01,2013-04-03 15:00:00,
2013-04-03 11:05:00,49.0,21.2,30.29,NW,321,0.0,1.0,33,0.00,,,0.00,744.00,VWS V14.01,2013-04-03 15:05:00,
2013-04-03 11:10:00,49.1,19.8,30.29,NNW,344,1.0,2.0,31,0.00,,,0.00,756.00,VWS V14.01,2013-04-03 15:10:00,
2013-04-03 11:15:00,49.3,19.2,30.29,North,5,3.0,6.0,30,0.00,,,0.00,768.00,VWS V14.01,2013-04-03 15:15:00,
2013-04-03 11:20:00,49.5,19.4,30.29,NNW,342,5.0,5.0,30,0.00,,,0.00,779.00,VWS V14.01,2013-04-03 15:20:00,
2013-04-03 11:25:00,49.7,20.3,30.29,ENE,74,2.0,2.0,31,0.00,,,0.00,791.00,VWS V14.01,2013-04-03 15:25:00,
2013-04-03 11:30:00,49.9,19.7,30.28,NNE,24,1.0,2.0,30,0.00,,,0.00,803.00,VWS V14.01,2013-04-03 15:30:00,
2013-04-03 11:35:00,50.4,21.7,30.28,ENE,63,0.0,2.0,32,0.00,,,0.00,819.00,VWS V14.01,2013-04-03 15:35:00,
2013-04-03 11:40:00,50.5,19.5,30.28,NE,55,1.0,2.0,29,0.00,,,0.00,826.00,VWS V14.01,2013-04-03 15:40:00,
2013-04-03 11:45:00,50.5,20.2,30.27,NNW,338,2.0,2.0,30,0.00,,,0.00,835.00,VWS V14.01,2013-04-03 15:45:00,
2013-04-03 11:50:00,51.1,20.0,30.27,SE,134,0.0,2.0,29,0.00,,,0.00,851.00,VWS V14.01,2013-04-03 15:50:00,
2013-04-03 11:55:00,51.8,20.6,30.27,NNE,19,2.0,4.0,29,0.00,,,0.00,856.00,VWS V14.01,2013-04-03 15:55:00,
2013-04-03 12:00:00,51.9,22.2,30.27,North,5,4.0,6.0,31,0.00,,,0.00,858.00,VWS V14.01,2013-04-03 16:00:00,
2013-04-03 12:05:00,52.2,20.9,30.27,NNE,19,3.0,4.0,29,0.00,,,0.00,865.00,VWS V14.01,2013-04-03 16:05:00,
2013-04-03 12:10:00,52.4,20.3,30.27,NNE,27,3.0,5.0,28,0.00,,,0.00,865.00,VWS V14.01,2013-04-03 16:10:00,
2013-04-03 12:15:00,52.3,20.2,30.26,West,267,3.0,4.0,28,0.00,,,0.00,875.00,VWS V14.01,2013-04-03 16:15:00,
2013-04-03 12:20:00,52.1,20.0,30.26,SW,228,4.0,6.0,28,0.00,,,0.00,882.00,VWS V14.01,2013-04-03 16:20:00,
2013-04-03 12:25:00,52.3,20.2,30.26,NW,319,3.0,3.0,28,0.00,,,0.00,882.00,VWS V14.01,2013-04-03 16:25:00,
2013-04-03 12:30:00,52.6,20.4,30.26,NE,37,3.0,4.0,28,0.00,,,0.00,888.00,VWS V14.01,2013-04-03 16:30:00,
2013-04-03 12:35:00,52.9,20.7,30.26,NNW,336,2.0,4.0,28,0.00,,,0.00,898.00,VWS V14.01,2013-04-03 16:35:00,
2013-04-03 12:40:00,53.0,19.9,30.25,West,259,3.0,5.0,27,0.00,,,0.00,902.00,VWS V14.01,2013-04-03 16:40:00,
2013-04-03 12:45:00,52.7,19.7,30.25,NE,53,1.0,5.0,27,0.00,,,0.00,905.00,VWS V14.01,2013-04-03 16:45:00,
2013-04-03 12:50:00,53.3,20.2,30.25,SE,128,2.0,2.0,27,0.00,,,0.00,911.00,VWS V14.01,2013-04-03 16:50:00,
2013-04-03 12:55:00,54.8,20.6,30.26,ESE,123,1.0,2.0,26,0.00,,,0.00,912.00,VWS V14.01,2013-04-03 16:55:00,
2013-04-03 13:00:00,55.6,21.3,30.26,ENE,61,2.0,2.0,26,0.00,,,0.00,916.00,VWS V14.01,2013-04-03 17:00:00,
2013-04-03 13:05:00,55.3,24.4,30.26,NE,35,5.0,5.0,30,0.00,,,0.00,916.00,VWS V14.01,2013-04-03 17:05:00,
2013-04-03 13:10:00,54.6,19.5,30.26,ENE,60,5.0,5.0,25,0.00,,,0.00,916.00,VWS V14.01,2013-04-03 17:10:00,
2013-04-03 13:15:00,54.9,23.3,30.26,WSW,254,1.0,2.0,29,0.00,,,0.00,919.00,VWS V14.01,2013-04-03 17:15:00,
2013-04-03 13:20:00,55.3,21.9,30.25,NNE,22,4.0,6.0,27,0.00,,,0.00,921.00,VWS V14.01,2013-04-03 17:20:00,
2013-04-03 13:25:00,54.4,19.3,30.25,SSE,159,3.0,5.0,25,0.00,,,0.00,925.00,VWS V14.01,2013-04-03 17:25:00,
2013-04-03 13:30:00,54.6,20.4,30.25,NNW,346,3.0,5.0,26,0.00,,,0.00,926.00,VWS V14.01,2013-04-03 17:30:00,
2013-04-03 13:35:00,55.0,19.8,30.24,North,355,5.0,6.0,25,0.00,,,0.00,925.00,VWS V14.01,2013-04-03 17:35:00,
2013-04-03 13:40:00,54.6,20.4,30.25,NNE,21,2.0,4.0,26,0.00,,,0.00,926.00,VWS V14.01,2013-04-03 17:40:00,
2013-04-03 13:45:00,55.3,19.1,30.24,SE,142,2.0,4.0,24,0.00,,,0.00,930.00,VWS V14.01,2013-04-03 17:45:00,
2013-04-03 13:50:00,55.4,19.2,30.24,SE,131,0.0,2.0,24,0.00,,,0.00,926.00,VWS V14.01,2013-04-03 17:50:00,
2013-04-03 13:55:00,56.1,20.8,30.24,NNW,342,4.0,5.0,25,0.00,,,0.00,877.00,VWS V14.01,2013-04-03 17:55:00,
2013-04-03 14:00:00,56.3,20.0,30.24,ESE,113,1.0,4.0,24,0.00,,,0.00,868.00,VWS V14.01,2013-04-03 18:00:00,
2013-04-03 14:05:00,57.2,21.7,30.24,South,179,0.0,2.0,25,0.00,,,0.00,911.00,VWS V14.01,2013-04-03 18:05:00,
2013-04-03 14:10:00,58.6,21.9,30.23,WNW,302,1.0,3.0,24,0.00,,,0.00,826.00,VWS V14.01,2013-04-03 18:10:00,
2013-04-03 14:15:00,58.8,22.1,30.23,SE,146,1.0,3.0,24,0.00,,,0.00,793.00,VWS V14.01,2013-04-03 18:15:00,
2013-04-03 14:20:00,59.2,21.4,30.23,West,271,2.0,2.0,23,0.00,,,0.00,835.00,VWS V14.01,2013-04-03 18:20:00,
2013-04-03 14:25:00,58.9,21.2,30.23,West,261,1.0,4.0,23,0.00,,,0.00,842.00,VWS V14.01,2013-04-03 18:25:00,
2013-04-03 14:30:00,59.0,22.3,30.22,SSE,158,1.0,5.0,24,0.00,,,0.00,838.00,VWS V14.01,2013-04-03 18:30:00,
2013-04-03 14:35:00,59.4,20.6,30.22,NE,46,5.0,5.0,22,0.00,,,0.00,835.00,VWS V14.01,2013-04-03 18:35:00,
2013-04-03 14:40:00,59.2,19.3,30.22,West,281,1.0,3.0,21,0.00,,,0.00,840.00,VWS V14.01,2013-04-03 18:40:00,
2013-04-03 14:45:00,58.5,20.9,30.21,ENE,76,0.0,2.0,23,0.00,,,0.00,840.00,VWS V14.01,2013-04-03 18:45:00,
2013-04-03 14:50:00,58.8,21.1,30.21,WSW,254,3.0,3.0,23,0.00,,,0.00,835.00,VWS V14.01,2013-04-03 18:50:00,
2013-04-03 14:55:00,59.4,22.6,30.21,South,175,3.0,5.0,24,0.00,,,0.00,821.00,VWS V14.01,2013-04-03 18:55:00,
2013-04-03 15:00:00,60.1,22.2,30.21,South,182,2.0,4.0,23,0.00,,,0.00,809.00,VWS V14.01,2013-04-03 19:00:00,
2013-04-03 15:05:00,60.2,22.3,30.22,ESE,115,4.0,5.0,23,0.00,,,0.00,812.00,VWS V14.01,2013-04-03 19:05:00,
2013-04-03 15:10:00,59.9,23.0,30.21,SSE,161,0.0,4.0,24,0.00,,,0.00,816.00,VWS V14.01,2013-04-03 19:10:00,
2013-04-03 15:15:00,60.1,21.1,30.21,WSW,241,3.0,7.0,22,0.00,,,0.00,805.00,VWS V14.01,2013-04-03 19:15:00,
2013-04-03 15:20:00,60.0,23.1,30.21,SW,233,2.0,2.0,24,0.00,,,0.00,789.00,VWS V14.01,2013-04-03 19:20:00,
2013-04-03 15:25:00,60.4,23.5,30.22,SSW,213,2.0,3.0,24,0.00,,,0.00,758.00,VWS V14.01,2013-04-03 19:25:00,
2013-04-03 15:30:00,61.0,23.0,30.22,SW,231,7.0,8.0,23,0.00,,,0.00,745.00,VWS V14.01,2013-04-03 19:30:00,
2013-04-03 15:35:00,60.6,21.6,30.22,WSW,244,5.0,5.0,22,0.00,,,0.00,770.00,VWS V14.01,2013-04-03 19:35:00,
2013-04-03 15:40:00,60.2,20.1,30.22,NW,321,3.0,4.0,21,0.00,,,0.00,728.00,VWS V14.01,2013-04-03 19:40:00,
2013-04-03 15:45:00,59.9,19.9,30.22,ENE,61,0.0,2.0,21,0.00,,,0.00,691.00,VWS V14.01,2013-04-03 19:45:00,
2013-04-03 15:50:00,60.2,21.2,30.21,SSE,163,5.0,6.0,22,0.00,,,0.00,628.00,VWS V14.01,2013-04-03 19:50:00,
2013-04-03 15:55:00,60.0,21.1,30.21,SE,144,2.0,2.0,22,0.00,,,0.00,592.00,VWS V14.01,2013-04-03 19:55:00,
2013-04-03 16:00:00,60.2,20.1,30.22,South,178,0.0,1.0,21,0.00,,,0.00,594.00,VWS V14.01,2013-04-03 20:00:00,
2013-04-03 16:05:00,61.0,21.9,30.21,SSW,195,2.0,2.0,22,0.00,,,0.00,599.00,VWS V14.01,2013-04-03 20:05:00,
2013-04-03 16:10:00,61.4,18.8,30.21,SW,217,1.0,2.0,19,0.00,,,0.00,594.00,VWS V14.01,2013-04-03 20:10:00,
2013-04-03 16:15:00,61.5,18.9,30.21,NNE,31,4.0,6.0,19,0.00,,,0.00,592.00,VWS V14.01,2013-04-03 20:15:00,
2013-04-03 16:20:00,60.7,17.0,30.20,North,349,1.0,3.0,18,0.00,,,0.00,554.00,VWS V14.01,2013-04-03 20:20:00,
2013-04-03 16:25:00,60.5,18.1,30.20,NW,311,2.0,5.0,19,0.00,,,0.00,497.00,VWS V14.01,2013-04-03 20:25:00,
2013-04-03 16:30:00,60.0,18.8,30.21,SW,229,1.0,4.0,20,0.00,,,0.00,522.00,VWS V14.01,2013-04-03 20:30:00,
2013-04-03 16:35:00,60.2,19.0,30.20,South,188,2.0,3.0,20,0.00,,,0.00,519.00,VWS V14.01,2013-04-03 20:35:00,
2013-04-03 16:40:00,60.4,19.2,30.21,West,271,1.0,3.0,20,0.00,,,0.00,512.00,VWS V14.01,2013-04-03 20:40:00,
2013-04-03 16:45:00,60.4,19.2,30.21,North,360,1.0,4.0,20,0.00,,,0.00,459.00,VWS V14.01,2013-04-03 20:45:00,
2013-04-03 16:50:00,60.4,21.4,30.21,West,261,0.0,0.0,22,0.00,,,0.00,464.00,VWS V14.01,2013-04-03 20:50:00,
2013-04-03 16:55:00,60.8,21.7,30.21,NNW,344,1.0,3.0,22,0.00,,,0.00,411.00,VWS V14.01,2013-04-03 20:55:00,
2013-04-03 17:00:00,60.5,18.1,30.21,North,9,2.0,4.0,19,0.00,,,0.00,350.00,VWS V14.01,2013-04-03 21:00:00,
2013-04-03 17:05:00,60.2,19.0,30.21,North,360,0.0,1.0,20,0.00,,,0.00,330.00,VWS V14.01,2013-04-03 21:05:00,
2013-04-03 17:10:00,60.2,19.0,30.21,ENE,76,1.0,4.0,20,0.00,,,0.00,313.00,VWS V14.01,2013-04-03 21:10:00,
2013-04-03 17:15:00,60.2,19.0,30.21,NNE,31,0.0,1.0,20,0.00,,,0.00,290.00,VWS V14.01,2013-04-03 21:15:00,
2013-04-03 17:20:00,60.4,19.2,30.21,West,271,1.0,4.0,20,0.00,,,0.00,274.00,VWS V14.01,2013-04-03 21:20:00,
2013-04-03 17:25:00,60.2,19.0,30.21,NW,323,0.0,1.0,20,0.00,,,0.00,230.00,VWS V14.01,2013-04-03 21:25:00,
2013-04-03 17:30:00,60.2,17.8,30.20,NNW,346,2.0,2.0,19,0.00,,,0.00,213.00,VWS V14.01,2013-04-03 21:30:00,
2013-04-03 17:35:00,60.0,20.0,30.20,WNW,300,2.0,3.0,21,0.00,,,0.00,209.00,VWS V14.01,2013-04-03 21:35:00,
2013-04-03 17:40:00,59.7,18.6,30.20,NNW,327,3.0,3.0,20,0.00,,,0.00,200.00,VWS V14.01,2013-04-03 21:40:00,
2013-04-03 17:45:00,59.6,17.3,30.20,NNW,327,1.0,1.0,19,0.00,,,0.00,181.00,VWS V14.01,2013-04-03 21:45:00,
2013-04-03 17:50:00,59.5,17.2,30.20,NNE,28,1.0,3.0,19,0.00,,,0.00,163.00,VWS V14.01,2013-04-03 21:50:00,
2013-04-03 17:55:00,59.1,16.9,30.21,North,355,0.0,2.0,19,0.00,,,0.00,156.00,VWS V14.01,2013-04-03 21:55:00,
2013-04-03 18:00:00,59.0,18.0,30.21,North,355,0.0,1.0,20,0.00,,,0.00,146.00,VWS V14.01,2013-04-03 22:00:00,
2013-04-03 18:05:00,59.0,18.0,30.21,WNW,298,0.0,1.0,20,0.00,,,0.00,135.00,VWS V14.01,2013-04-03 22:05:00,
2013-04-03 18:10:00,58.9,19.1,30.21,WNW,285,2.0,2.0,21,0.00,,,0.00,130.00,VWS V14.01,2013-04-03 22:10:00,
2013-04-03 18:15:00,58.9,21.2,30.20,WNW,285,2.0,2.0,23,0.00,,,0.00,121.00,VWS V14.01,2013-04-03 22:15:00,
2013-04-03 18:20:00,58.9,20.1,30.21,WNW,285,0.0,1.0,22,0.00,,,0.00,113.00,VWS V14.01,2013-04-03 22:20:00,
2013-04-03 18:25:00,58.8,22.1,30.21,WNW,285,0.0,2.0,24,0.00,,,0.00,104.00,VWS V14.01,2013-04-03 22:25:00,
2013-04-03 18:30:00,58.7,20.0,30.21,WNW,285,0.0,0.0,22,0.00,,,0.00,91.00,VWS V14.01,2013-04-03 22:30:00,
2013-04-03 18:35:00,58.7,22.0,30.21,WNW,285,0.0,0.0,24,0.00,,,0.00,86.00,VWS V14.01,2013-04-03 22:35:00,
2013-04-03 18:40:00,58.6,19.9,30.20,NNW,327,0.0,0.0,22,0.00,,,0.00,81.00,VWS V14.01,2013-04-03 22:40:00,
2013-04-03 18:45:00,58.5,20.9,30.20,NNW,327,0.0,0.0,23,0.00,,,0.00,69.00,VWS V14.01,2013-04-03 22:45:00,
2013-04-03 18:50:00,58.4,21.8,30.20,NNW,327,0.0,0.0,24,0.00,,,0.00,62.00,VWS V14.01,2013-04-03 22:50:00,
2013-04-03 18:55:00,58.2,19.6,30.20,NNW,327,0.0,0.0,22,0.00,,,0.00,53.00,VWS V14.01,2013-04-03 22:55:00,
2013-04-03 19:00:00,58.2,25.3,30.20,NNW,327,0.0,0.0,28,0.00,,,0.00,46.00,VWS V14.01,2013-04-03 23:00:00,
2013-04-03 19:05:00,58.1,26.0,30.20,NNW,327,0.0,1.0,29,0.00,,,0.00,37.00,VWS V14.01,2013-04-03 23:05:00,
2013-04-03 19:10:00,57.8,25.8,30.20,NNW,327,0.0,0.0,29,0.00,,,0.00,28.00,VWS V14.01,2013-04-03 23:10:00,
2013-04-03 19:15:00,57.7,28.8,30.20,NNW,327,0.0,0.0,33,0.00,,,0.00,26.00,VWS V14.01,2013-04-03 23:15:00,
2013-04-03 19:20:00,57.5,28.6,30.20,NNW,327,0.0,0.0,33,0.00,,,0.00,19.00,VWS V14.01,2013-04-03 23:20:00,
2013-04-03 19:25:00,57.4,29.3,30.20,NNW,327,0.0,0.0,34,0.00,,,0.00,14.00,VWS V14.01,2013-04-03 23:25:00,
2013-04-03 19:30:00,57.1,30.4,30.21,NNW,327,0.0,0.0,36,0.00,,,0.00,11.00,VWS V14.01,2013-04-03 23:30:00,
2013-04-03 19:35:00,56.8,28.8,30.21,NNW,327,0.0,0.0,34,0.00,,,0.00,7.00,VWS V14.01,2013-04-03 23:35:00,
2013-04-03 19:40:00,56.4,27.7,30.21,NNW,327,0.0,0.0,33,0.00,,,0.00,0.00,VWS V14.01,2013-04-03 23:40:00,
2013-04-03 19:45:00,56.0,27.3,30.21,NNW,327,1.0,1.0,33,0.00,,,0.00,0.00,VWS V14.01,2013-04-03 23:45:00,
2013-04-03 19:50:00,55.6,30.4,30.21,NNW,327,0.0,0.0,38,0.00,,,0.00,0.00,VWS V14.01,2013-04-03 23:50:00,
2013-04-03 19:55:00,55.2,29.4,30.21,NNW,327,0.0,0.0,37,0.00,,,0.00,0.00,VWS V14.01,2013-04-03 23:55:00,
2013-04-03 20:00:00,54.8,31.0,30.21,NNW,327,0.0,0.0,40,0.00,,,0.00,0.00,VWS V14.01,2013-04-04 00:00:00,
2013-04-03 20:05:00,54.3,32.3,30.21,NNW,327,0.0,0.0,43,0.00,,,0.00,0.00,VWS V14.01,2013-04-04 00:05:00,
2013-04-03 20:10:00,53.9,31.9,30.22,NNW,327,0.0,0.0,43,0.00,,,0.00,0.00,VWS V14.01,2013-04-04 00:10:00,
2013-04-03 20:15:00,53.5,31.6,30.22,NNW,327,0.0,0.0,43,0.00,,,0.00,0.00,VWS V14.01,2013-04-04 00:15:00,
2013-04-03 20:20:00,53.2,30.7,30.22,NNW,327,0.0,0.0,42,0.00,,,0.00,0.00,VWS V14.01,2013-04-04 00:20:00,
2013-04-03 20:25:00,52.8,30.4,30.23,NNW,327,0.0,0.0,42,0.00,,,0.00,0.00,VWS V14.01,2013-04-04 00:25:00,
2013-04-03 20:30:00,52.5,30.1,30.24,NNW,327,1.0,1.0,42,0.00,,,0.00,0.00,VWS V14.01,2013-04-04 00:30:00,
2013-04-03 20:35:00,52.2,28.0,30.24,NNW,327,0.0,0.0,39,0.00,,,0.00,0.00,VWS V14.01,2013-04-04 00:35:00,
2013-04-03 20:41:00,52.0,27.8,30.24,NNW,327,0.0,0.0,39,0.00,,,0.00,0.00,VWS V14.01,2013-04-04 00:41:00,
2013-04-03 20:46:00,51.7,28.8,30.24,NNW,327,0.0,0.0,41,0.00,,,0.00,0.00,VWS V14.01,2013-04-04 00:46:00,
2013-04-03 20:51:00,51.4,29.1,30.24,NNW,327,0.0,0.0,42,0.00,,,0.00,0.00,VWS V14.01,2013-04-04 00:51:00,
2013-04-03 20:55:00,51.2,30.0,30.24,NNW,327,0.0,0.0,44,0.00,,,0.00,0.00,VWS V14.01,2013-04-04 00:55:00,
2013-04-03 21:00:00,50.9,28.1,30.24,NNW,327,0.0,0.0,41,0.00,,,0.00,0.00,VWS V14.01,2013-04-04 01:00:00,
2013-04-03 21:05:00,50.7,30.1,30.24,NNW,327,0.0,0.0,45,0.00,,,0.00,0.00,VWS V14.01,2013-04-04 01:05:00,
2013-04-03 21:10:00,50.6,32.7,30.24,NNW,327,0.0,0.0,50,0.00,,,0.00,0.00,VWS V14.01,2013-04-04 01:10:00,
2013-04-03 21:15:00,50.4,32.0,30.25,NNW,327,0.0,0.0,49,0.00,,,0.00,0.00,VWS V14.01,2013-04-04 01:15:00,
2013-04-03 21:20:00,50.2,31.3,30.25,NNW,327,0.0,0.0,48,0.00,,,0.00,0.00,VWS V14.01,2013-04-04 01:20:00,
2013-04-03 21:25:00,50.0,30.6,30.25,NNW,327,0.0,0.0,47,0.00,,,0.00,0.00,VWS V14.01,2013-04-04 01:25:00,
2013-04-03 21:30:00,49.7,31.3,30.26,NNW,327,0.0,0.0,49,0.00,,,0.00,0.00,VWS V14.01,2013-04-04 01:30:00,
2013-04-03 21:35:00,49.5,26.8,30.26,NNW,327,0.0,0.0,41,0.00,,,0.00,0.00,VWS V14.01,2013-04-04 01:35:00,
2013-04-03 21:40:00,49.3,27.2,30.26,NNW,327,0.0,0.0,42,0.00,,,0.00,0.00,VWS V14.01,2013-04-04 01:40:00,
2013-04-03 21:46:00,49.1,29.2,30.27,NNW,327,0.0,0.0,46,0.00,,,0.00,0.00,VWS V14.01,2013-04-04 01:46:00,
2013-04-03 21:51:00,49.0,29.1,30.28,NNW,327,0.0,0.0,46,0.00,,,0.00,0.00,VWS V14.01,2013-04-04 01:51:00,
2013-04-03 21:56:00,48.8,30.5,30.28,NNW,327,0.0,0.0,49,0.00,,,0.00,0.00,VWS V14.01,2013-04-04 01:56:00,
2013-04-03 22:01:00,48.5,28.1,30.28,NNW,327,0.0,0.0,45,0.00,,,0.00,0.00,VWS V14.01,2013-04-04 02:01:00,
2013-04-03 22:06:00,48.3,28.0,30.28,NNW,327,0.0,0.0,45,0.00,,,0.00,0.00,VWS V14.01,2013-04-04 02:06:00,
2013-04-03 22:11:00,48.2,25.6,30.28,NNW,327,0.0,0.0,41,0.00,,,0.00,0.00,VWS V14.01,2013-04-04 02:11:00,
2013-04-03 22:16:00,48.0,26.6,30.29,NNW,327,0.0,0.0,43,0.00,,,0.00,0.00,VWS V14.01,2013-04-04 02:16:00,
2013-04-03 22:21:00,47.9,26.5,30.29,NNW,327,0.0,0.0,43,0.00,,,0.00,0.00,VWS V14.01,2013-04-04 02:21:00,
2013-04-03 22:26:00,47.8,30.1,30.29,NNW,327,0.0,1.0,50,0.00,,,0.00,0.00,VWS V14.01,2013-04-04 02:26:00,
2013-04-03 22:31:00,47.7,28.0,30.29,NNW,327,0.0,0.0,46,0.00,,,0.00,0.00,VWS V14.01,2013-04-04 02:31:00,
2013-04-03 22:36:00,47.6,25.1,30.29,NNW,327,0.0,0.0,41,0.00,,,0.00,0.00,VWS V14.01,2013-04-04 02:36:00,
2013-04-03 22:41:00,47.6,25.7,30.30,NNW,327,0.0,0.0,42,0.00,,,0.00,0.00,VWS V14.01,2013-04-04 02:41:00,
2013-04-03 22:46:00,47.6,26.2,30.30,NNW,327,0.0,0.0,43,0.00,,,0.00,0.00,VWS V14.01,2013-04-04 02:46:00,
2013-04-03 22:51:00,47.6,25.1,30.29,NNW,327,0.0,0.0,41,0.00,,,0.00,0.00,VWS V14.01,2013-04-04 02:51:00,
2013-04-03 22:56:00,47.6,23.9,30.29,NNW,327,0.0,0.0,39,0.00,,,0.00,0.00,VWS V14.01,2013-04-04 02:56:00,
2013-04-03 23:01:00,47.6,24.5,30.30,NNW,327,0.0,0.0,40,0.00,,,0.00,0.00,VWS V14.01,2013-04-04 03:01:00,
2013-04-03 23:06:00,47.6,23.9,30.30,NNW,327,1.0,1.0,39,0.00,,,0.00,0.00,VWS V14.01,2013-04-04 03:06:00,
2013-04-03 23:11:00,47.7,24.0,30.30,NNW,327,1.0,2.0,39,0.00,,,0.00,0.00,VWS V14.01,2013-04-04 03:11:00,
2013-04-03 23:16:00,47.7,24.0,30.30,NNW,327,0.0,0.0,39,0.00,,,0.00,0.00,VWS V14.01,2013-04-04 03:16:00,
2013-04-03 23:21:00,47.7,24.6,30.30,NNW,327,0.0,0.0,40,0.00,,,0.00,0.00,VWS V14.01,2013-04-04 03:21:00,
2013-04-03 23:26:00,47.7,24.0,30.29,NNW,327,0.0,0.0,39,0.00,,,0.00,0.00,VWS V14.01,2013-04-04 03:26:00,
2013-04-03 23:31:00,47.7,24.6,30.29,NNW,327,0.0,1.0,40,0.00,,,0.00,0.00,VWS V14.01,2013-04-04 03:31:00,
2013-04-03 23:36:00,47.6,23.9,30.29,NNW,327,0.0,0.0,39,0.00,,,0.00,0.00,VWS V14.01,2013-04-04 03:36:00,
2013-04-03 23:41:00,47.5,23.2,30.29,NNW,327,0.0,0.0,38,0.00,,,0.00,0.00,VWS V14.01,2013-04-04 03:41:00,
2013-04-03 23:46:00,47.4,22.5,30.30,NNW,327,0.0,0.0,37,0.00,,,0.00,0.00,VWS V14.01,2013-04-04 03:46:00,
2013-04-03 23:51:00,47.3,23.6,30.29,NNW,327,0.0,0.0,39,0.00,,,0.00,0.00,VWS V14.01,2013-04-04 03:51:00,
2013-04-03 23:56:00,47.1,23.4,30.29,NNW,327,0.0,0.0,39,0.00,,,0.00,0.00,VWS V14.01,2013-04-04 03:56:00,